Time;durP1;ratioP1;P1;durP2;ratioP2;P2;SDS_P1;SDS_P2;PMS_P1;PMS_P2;Temp;Humidity;BMP_temperature;BMP_pressure;BME280_temperature;BME280_humidity;BME280_pressure;Samples;Min_cycle;Max_cycle;Signal;HPM_P1;HPM_P2
2023/06/11 00:00:01;;;;;;;2.78;1.63;;;11.10;59.60;;;;;;5051108;28;20196;-57
2023/06/11 00:02:34;;;;;;;3.70;1.77;;;11.10;62.20;;;;;;5051305;28;20282;-51
2023/06/11 00:05:07;;;;;;;4.32;2.30;;;11.30;64.70;;;;;;5051013;28;20262;-51
2023/06/11 00:07:39;;;;;;;5.03;3.30;;;11.40;67.70;;;;;;5051050;28;20257;-52
2023/06/11 00:10:10;;;;;;;6.28;3.58;;;11.60;69.80;;;;;;5051160;28;20207;-55
2023/06/11 00:12:40;;;;;;;8.15;4.57;;;11.70;71.60;;;;;;5058949;28;20635;-52
2023/06/11 00:15:12;;;;;;;7.85;5.07;;;11.90;73.90;;;;;;5071142;28;20195;-52
2023/06/11 00:17:44;;;;;;;11.32;6.32;;;12.10;75.70;;;;;;5070952;28;20194;-53
2023/06/11 00:20:15;;;;;;;10.23;6.95;;;12.20;77.00;;;;;;5070950;28;20207;-53
2023/06/11 00:22:46;;;;;;;11.85;6.35;;;12.40;77.80;;;;;;5069515;28;20183;-57
2023/06/11 00:25:17;;;;;;;11.00;6.95;;;12.60;77.60;;;;;;5070180;28;20686;-48
2023/06/11 00:27:48;;;;;;;9.52;6.97;;;12.70;76.10;;;;;;5058949;28;20635;-53
2023/06/11 00:30:18;;;;;;;11.05;7.70;;;12.80;77.50;;;;;;5050843;28;20195;-54
2023/06/11 00:32:51;;;;;;;13.02;8.52;;;13.00;79.00;;;;;;5051169;28;20630;-54
2023/06/11 00:35:22;;;;;;;11.93;8.65;;;13.10;79.80;;;;;;5051080;28;21912;-49
2023/06/11 00:37:52;;;;;;;13.18;10.40;;;13.30;80.50;;;;;;5051064;28;20196;-49
2023/06/11 00:40:23;;;;;;;11.13;9.15;;;13.50;81.20;;;;;;5050477;28;20682;-49
2023/06/11 00:42:54;;;;;;;12.05;9.07;;;13.60;81.50;;;;;;5050753;28;20200;-47
2023/06/11 00:45:27;;;;;;;10.88;7.88;;;13.80;81.40;;;;;;5050636;28;20255;-48
2023/06/11 00:47:59;;;;;;;9.70;7.00;;;13.90;80.70;;;;;;5050546;28;20238;-47
2023/06/11 00:50:30;;;;;;;10.57;6.70;;;14.00;79.70;;;;;;5050863;28;20195;-48
2023/06/11 00:53:01;;;;;;;10.10;7.18;;;14.10;77.90;;;;;;5050693;28;20577;-47
2023/06/11 00:55:32;;;;;;;10.27;6.53;;;14.10;76.40;;;;;;5053109;28;20265;-52
2023/06/11 00:58:02;;;;;;;11.07;7.03;;;14.10;75.80;;;;;;5050851;28;20257;-49
2023/06/11 01:00:35;;;;;;;13.43;7.60;;;14.10;74.50;;;;;;5050527;28;20204;-48
2023/06/11 01:03:17;;;;;;;13.10;10.27;;;14.10;74.00;;;;;;5050530;28;20207;-46
2023/06/11 01:06:01;;;;;;;20.52;18.52;;;14.20;74.10;;;;;;5050471;28;20233;-46
2023/06/11 01:08:34;;;;;;;84.38;76.30;;;14.30;74.00;;;;;;5050685;28;20210;-48
2023/06/11 01:11:08;;;;;;;101.85;91.97;;;14.30;73.70;;;;;;5050045;28;20191;-48
2023/06/11 01:13:39;;;;;;;63.63;57.03;;;14.30;73.50;;;;;;5049799;28;20238;-48
2023/06/11 01:16:14;;;;;;;42.83;38.22;;;14.40;73.00;;;;;;5050386;28;20238;-49
2023/06/11 01:18:58;;;;;;;33.05;29.75;;;14.40;72.40;;;;;;5062052;28;20206;-48
2023/06/11 01:21:35;;;;;;;25.92;23.30;;;14.50;71.70;;;;;;5069016;28;20187;-47
2023/06/11 01:24:14;;;;;;;23.60;19.88;;;14.50;71.10;;;;;;5053700;28;20225;-50
2023/06/11 01:26:52;;;;;;;16.27;13.85;;;14.50;70.30;;;;;;5054032;28;20232;-50
2023/06/11 01:29:26;;;;;;;12.38;11.05;;;14.50;69.60;;;;;;5056664;28;20188;-51
2023/06/11 01:31:57;;;;;;;12.98;11.68;;;14.50;69.10;;;;;;5073885;28;20304;-49
2023/06/11 01:34:29;;;;;;;11.73;10.10;;;14.50;68.80;;;;;;5074161;28;20662;-50
2023/06/11 01:36:59;;;;;;;11.65;8.48;;;14.50;68.50;;;;;;5074018;28;20222;-50
2023/06/11 01:39:30;;;;;;;9.32;7.55;;;14.50;68.20;;;;;;5073818;28;20197;-48
2023/06/11 01:42:00;;;;;;;7.85;5.45;;;14.60;68.00;;;;;;5073242;28;20190;-48
2023/06/11 01:44:33;;;;;;;10.60;7.00;;;14.50;67.70;;;;;;5073402;28;20590;-53
2023/06/11 01:47:04;;;;;;;10.00;7.07;;;14.60;67.50;;;;;;5073527;28;20667;-48
2023/06/11 01:49:34;;;;;;;7.43;5.82;;;14.50;67.20;;;;;;5073703;28;20199;-47
2023/06/11 01:52:05;;;;;;;7.90;6.05;;;14.50;67.10;;;;;;5073319;28;20201;-48
2023/06/11 01:54:35;;;;;;;6.20;5.60;;;14.60;67.00;;;;;;5073119;28;20206;-49
2023/06/11 01:57:06;;;;;;;8.18;6.35;;;14.60;66.80;;;;;;5066669;28;20228;-47
2023/06/11 01:59:39;;;;;;;8.20;4.70;;;14.60;66.70;;;;;;5053384;28;20278;-47
2023/06/11 02:02:09;;;;;;;5.25;4.40;;;14.60;66.50;;;;;;5053523;28;20204;-46
2023/06/11 02:04:40;;;;;;;6.30;4.05;;;14.60;66.40;;;;;;5053614;28;20222;-46
2023/06/11 02:07:11;;;;;;;6.50;4.10;;;14.60;66.20;;;;;;5053260;28;20223;-49
2023/06/11 02:09:41;;;;;;;8.50;4.00;;;14.60;66.10;;;;;;5053425;28;20195;-49
2023/06/11 02:12:12;;;;;;;5.85;3.75;;;14.60;66.00;;;;;;5068431;28;20198;-47
2023/06/11 02:14:45;;;;;;;6.97;3.95;;;14.60;66.00;;;;;;5072967;28;20207;-49
2023/06/11 02:17:15;;;;;;;4.05;3.38;;;14.60;65.90;;;;;;5073140;28;20226;-47
2023/06/11 02:19:46;;;;;;;4.80;3.65;;;14.60;65.80;;;;;;5072891;28;20720;-46
2023/06/11 02:22:17;;;;;;;4.43;2.95;;;14.60;65.70;;;;;;5071207;28;20190;-46
2023/06/11 02:24:48;;;;;;;7.13;3.38;;;14.60;65.60;;;;;;5072488;28;20215;-47
2023/06/11 02:27:18;;;;;;;4.85;2.95;;;14.60;65.60;;;;;;5064671;28;20215;-47
2023/06/11 02:29:51;;;;;;;9.50;4.68;;;14.60;65.40;;;;;;5053017;28;20195;-48
2023/06/11 02:32:21;;;;;;;7.47;5.38;;;14.70;65.40;;;;;;5052836;28;20206;-49
2023/06/11 02:34:52;;;;;;;6.97;4.35;;;14.70;65.20;;;;;;5052587;28;20199;-47
2023/06/11 02:37:23;;;;;;;6.28;4.20;;;14.70;65.20;;;;;;5052090;28;20288;-49
2023/06/11 02:39:53;;;;;;;5.85;4.68;;;14.70;65.10;;;;;;5052177;28;20683;-48
2023/06/11 02:42:24;;;;;;;6.43;4.97;;;14.70;65.10;;;;;;5052728;28;20257;-47
2023/06/11 02:44:56;;;;;;;5.47;4.43;;;14.80;65.10;;;;;;5052589;28;20223;-47
2023/06/11 02:47:27;;;;;;;6.45;4.97;;;14.80;65.00;;;;;;5052230;28;20216;-47
2023/06/11 02:49:57;;;;;;;6.80;3.40;;;14.80;65.00;;;;;;5052285;28;20196;-48
2023/06/11 02:52:28;;;;;;;6.50;4.07;;;14.80;65.60;;;;;;5052489;28;20243;-46
2023/06/11 02:54:59;;;;;;;5.40;3.67;;;14.80;64.80;;;;;;5052256;28;20199;-49
2023/06/11 02:57:29;;;;;;;5.90;3.72;;;14.80;64.70;;;;;;5051825;28;20648;-48
2023/06/11 03:00:03;;;;;;;7.68;4.00;;;14.80;64.60;;;;;;5052475;28;20840;-47
2023/06/11 03:02:33;;;;;;;7.05;3.67;;;14.80;64.60;;;;;;5055083;28;20192;-51
2023/06/11 03:05:04;;;;;;;8.48;4.82;;;14.80;64.50;;;;;;5052261;28;20709;-47
2023/06/11 03:07:35;;;;;;;5.65;4.07;;;14.90;64.50;;;;;;5051844;28;20207;-47
2023/06/11 03:10:05;;;;;;;5.38;3.58;;;14.90;64.40;;;;;;5052054;28;20202;-46
2023/06/11 03:12:36;;;;;;;6.38;4.18;;;14.90;64.50;;;;;;5052438;28;20557;-48
2023/06/11 03:15:10;;;;;;;6.28;4.18;;;14.90;64.40;;;;;;5051978;28;20644;-48
2023/06/11 03:17:40;;;;;;;4.90;3.65;;;14.90;64.40;;;;;;5052100;28;20194;-47
2023/06/11 03:20:12;;;;;;;9.52;4.65;;;15.00;64.40;;;;;;5070231;28;20210;-48
2023/06/11 03:22:42;;;;;;;6.53;4.10;;;15.00;64.30;;;;;;5059651;28;20195;-47
2023/06/11 03:25:13;;;;;;;6.03;3.80;;;15.00;64.30;;;;;;5051507;28;20693;-48
2023/06/11 03:27:44;;;;;;;6.30;4.03;;;15.00;64.30;;;;;;5052195;28;20218;-48
2023/06/11 03:30:19;;;;;;;7.32;4.00;;;15.10;64.30;;;;;;5066093;28;20190;-51
2023/06/11 03:32:50;;;;;;;6.28;4.35;;;15.10;64.20;;;;;;5071984;28;20206;-48
2023/06/11 03:35:21;;;;;;;11.93;8.73;;;15.10;64.90;;;;;;5071683;28;20195;-51
2023/06/11 03:37:51;;;;;;;26.58;18.48;;;15.10;64.00;;;;;;5071899;28;20202;-49
2023/06/11 03:40:22;;;;;;;14.20;10.88;;;15.20;63.90;;;;;;5071242;28;20200;-48
2023/06/11 03:42:53;;;;;;;12.30;9.10;;;15.20;63.80;;;;;;5070309;28;20202;-51
2023/06/11 03:45:25;;;;;;;14.60;10.50;;;15.30;64.60;;;;;;5071061;28;20222;-51
2023/06/11 03:47:56;;;;;;;11.32;8.20;;;15.30;65.70;;;;;;5071620;28;20194;-50
2023/06/11 03:50:27;;;;;;;12.02;8.30;;;15.30;66.90;;;;;;5071961;28;20195;-50
2023/06/11 03:52:57;;;;;;;10.35;8.70;;;15.40;68.20;;;;;;5071662;28;20252;-53
2023/06/11 03:55:29;;;;;;;13.55;8.50;;;15.50;68.70;;;;;;5071316;28;20276;-47
2023/06/11 03:58:00;;;;;;;14.65;10.68;;;15.50;67.00;;;;;;5057720;28;20203;-48
2023/06/11 04:00:32;;;;;;;38.20;22.85;;;15.50;65.80;;;;;;5051359;28;20200;-48
2023/06/11 04:03:03;;;;;;;54.67;32.08;;;15.50;65.10;;;;;;5050852;28;20227;-50
2023/06/11 04:05:38;;;;;;;41.95;23.20;;;15.50;65.10;;;;;;5050980;28;20223;-50
2023/06/11 04:08:09;;;;;;;25.33;17.58;;;15.50;64.10;;;;;;5051215;28;20203;-48
2023/06/11 04:10:40;;;;;;;20.92;14.18;;;15.50;63.30;;;;;;5051245;28;20195;-49
2023/06/11 04:13:10;;;;;;;22.67;14.20;;;15.50;62.80;;;;;;5051566;28;20207;-48
2023/06/11 04:15:43;;;;;;;21.50;14.40;;;15.50;62.40;;;;;;5052344;28;20219;-51
2023/06/11 04:18:13;;;;;;;21.08;15.30;;;15.40;62.10;;;;;;5031564;28;20200;-48
2023/06/11 04:20:44;;;;;;;22.05;18.58;;;15.50;62.00;;;;;;5031104;28;20211;-48
2023/06/11 04:23:15;;;;;;;20.20;17.00;;;15.40;61.60;;;;;;5069154;28;20195;-52
2023/06/11 04:25:49;;;;;;;29.42;21.95;;;15.40;62.10;;;;;;5070725;28;20229;-49
2023/06/11 04:28:20;;;;;;;32.50;25.30;;;15.40;61.60;;;;;;5053950;28;20237;-48
2023/06/11 04:30:56;;;;;;;37.13;27.90;;;15.40;61.20;;;;;;5051063;28;20192;-48
2023/06/11 04:33:32;;;;;;;40.67;29.05;;;15.40;60.80;;;;;;5051438;28;20238;-49
2023/06/11 04:36:05;;;;;;;40.88;28.27;;;15.30;60.80;;;;;;5051202;28;20211;-47
2023/06/11 04:38:36;;;;;;;38.90;26.25;;;15.30;60.60;;;;;;5051282;28;20264;-47
2023/06/11 04:41:10;;;;;;;35.75;24.08;;;15.30;60.20;;;;;;5050514;28;20192;-48
2023/06/11 04:43:42;;;;;;;31.42;22.88;;;15.30;60.00;;;;;;5042911;28;20681;-48
2023/06/11 04:46:15;;;;;;;27.38;21.38;;;15.30;59.80;;;;;;5030931;28;20227;-48
2023/06/11 04:48:48;;;;;;;33.10;21.92;;;15.20;59.60;;;;;;5031169;28;20292;-48
2023/06/11 04:51:20;;;;;;;29.42;22.50;;;15.20;59.40;;;;;;5030444;28;20657;-47
2023/06/11 04:53:52;;;;;;;26.95;21.75;;;15.20;59.30;;;;;;5053127;28;20219;-49
2023/06/11 04:56:22;;;;;;;29.77;22.55;;;15.10;59.20;;;;;;5054461;28;20215;-47
2023/06/11 04:58:53;;;;;;;32.53;24.40;;;15.00;59.00;;;;;;5054721;28;20218;-47
2023/06/11 05:01:32;;;;;;;29.20;23.40;;;15.00;58.80;;;;;;5054699;28;20671;-48
2023/06/11 05:04:03;;;;;;;27.27;22.08;;;15.00;58.60;;;;;;5054275;28;20574;-47
2023/06/11 05:06:34;;;;;;;26.73;20.50;;;14.90;58.40;;;;;;5054458;28;20235;-49
2023/06/11 05:09:05;;;;;;;23.25;18.65;;;14.80;58.40;;;;;;5054347;28;20203;-48
2023/06/11 05:11:35;;;;;;;21.05;15.52;;;14.80;58.30;;;;;;5054715;28;20242;-48
2023/06/11 05:14:06;;;;;;;35.28;23.23;;;14.70;58.20;;;;;;5054729;28;20203;-47
2023/06/11 05:16:39;;;;;;;84.82;42.28;;;14.60;58.30;;;;;;5054568;28;20219;-48
2023/06/11 05:19:09;;;;;;;50.65;26.05;;;14.60;58.40;;;;;;5053948;28;20683;-49
2023/06/11 05:21:40;;;;;;;30.70;19.52;;;14.50;58.40;;;;;;5057025;28;20261;-48
2023/06/11 05:24:18;;;;;;;25.65;17.98;;;14.50;58.50;;;;;;5069357;28;20198;-49
2023/06/11 05:26:49;;;;;;;19.55;13.60;;;14.50;58.40;;;;;;5070448;28;20235;-51
2023/06/11 05:29:20;;;;;;;16.23;11.48;;;14.40;58.30;;;;;;5054396;28;20221;-48
2023/06/11 05:31:52;;;;;;;12.45;8.55;;;14.40;58.30;;;;;;5069572;28;20199;-50
2023/06/11 05:34:23;;;;;;;8.07;5.65;;;14.40;58.30;;;;;;5073772;28;20198;-49
2023/06/11 05:36:53;;;;;;;6.32;4.40;;;14.40;58.30;;;;;;5074229;28;20226;-51
2023/06/11 05:39:24;;;;;;;6.38;4.07;;;14.40;58.20;;;;;;5074463;28;20245;-50
2023/06/11 05:41:55;;;;;;;4.95;4.40;;;14.40;58.20;;;;;;5073870;28;20678;-53
2023/06/11 05:44:25;;;;;;;8.68;6.53;;;14.40;58.10;;;;;;5074003;28;20195;-51
2023/06/11 05:46:58;;;;;;;4.50;3.45;;;14.40;58.30;;;;;;5073830;28;20223;-52
2023/06/11 05:49:28;;;;;;;4.43;3.58;;;14.40;58.30;;;;;;5073347;28;20251;-52
2023/06/11 05:51:59;;;;;;;4.03;3.63;;;14.40;58.40;;;;;;5073335;28;20203;-52
2023/06/11 05:54:30;;;;;;;7.05;6.45;;;14.40;58.40;;;;;;5073353;28;20560;-48
2023/06/11 05:57:01;;;;;;;6.20;5.28;;;14.40;58.40;;;;;;5067888;28;20219;-47
2023/06/11 05:59:31;;;;;;;2.80;2.60;;;14.50;58.20;;;;;;5053692;28;20202;-46
2023/06/11 06:02:04;;;;;;;7.97;7.20;;;14.50;58.00;;;;;;5052963;28;20699;-48
2023/06/11 06:04:34;;;;;;;4.57;4.18;;;14.50;57.90;;;;;;5052084;28;20195;-48
2023/06/11 06:07:05;;;;;;;5.00;4.43;;;14.50;57.80;;;;;;5052846;28;20238;-47
2023/06/11 06:09:36;;;;;;;3.95;3.58;;;14.50;57.60;;;;;;5053034;28;20195;-48
2023/06/11 06:12:07;;;;;;;3.13;2.65;;;14.50;57.30;;;;;;5053124;28;20539;-47
2023/06/11 06:14:38;;;;;;;2.47;2.28;;;14.50;57.30;;;;;;5053192;28;20195;-48
2023/06/11 06:17:11;;;;;;;5.07;4.45;;;14.50;57.10;;;;;;5053030;28;20227;-50
2023/06/11 06:19:41;;;;;;;5.00;4.15;;;14.50;57.30;;;;;;5058002;28;20190;-52
2023/06/11 06:22:13;;;;;;;4.43;4.03;;;14.50;57.50;;;;;;5073084;28;20202;-54
2023/06/11 06:24:44;;;;;;;3.15;2.85;;;14.60;57.70;;;;;;5069713;28;20199;-55
2023/06/11 06:27:15;;;;;;;3.42;3.13;;;14.60;57.80;;;;;;5062019;28;20230;-55
2023/06/11 06:29:45;;;;;;;3.05;2.42;;;14.60;57.80;;;;;;5052671;28;20610;-48
2023/06/11 06:32:18;;;;;;;2.55;2.35;;;14.60;57.90;;;;;;5052381;28;20206;-52
2023/06/11 06:34:48;;;;;;;3.88;2.50;;;14.70;57.80;;;;;;5051856;28;20192;-52
2023/06/11 06:37:19;;;;;;;3.28;2.65;;;14.70;57.70;;;;;;5052289;28;20215;-51
2023/06/11 06:39:50;;;;;;;2.38;2.13;;;14.70;57.60;;;;;;5052320;28;20199;-50
2023/06/11 06:42:20;;;;;;;2.40;1.88;;;14.80;57.70;;;;;;5052583;28;20206;-50
2023/06/11 06:44:51;;;;;;;2.30;2.10;;;14.80;57.60;;;;;;5055398;28;20191;-50
2023/06/11 06:47:23;;;;;;;2.08;1.88;;;14.80;57.70;;;;;;5052635;28;20228;-50
2023/06/11 06:49:54;;;;;;;2.40;2.20;;;14.80;57.80;;;;;;5052440;28;20192;-50
2023/06/11 06:52:25;;;;;;;2.47;1.95;;;14.80;57.90;;;;;;5052583;28;20204;-53
2023/06/11 06:54:55;;;;;;;2.13;1.92;;;14.90;57.90;;;;;;5052715;28;20206;-50
2023/06/11 06:57:26;;;;;;;3.55;2.17;;;14.90;57.90;;;;;;5052276;28;20223;-52
2023/06/11 06:59:57;;;;;;;2.00;1.80;;;14.90;57.90;;;;;;5052593;28;20562;-50
2023/06/11 07:02:29;;;;;;;2.05;1.80;;;14.90;57.90;;;;;;5052395;28;20199;-51
2023/06/11 07:05:00;;;;;;;2.42;2.10;;;14.90;57.90;;;;;;5052358;28;20647;-52
2023/06/11 07:07:31;;;;;;;1.75;1.65;;;14.90;57.80;;;;;;5052311;28;20326;-49
2023/06/11 07:10:01;;;;;;;2.60;2.15;;;14.90;57.80;;;;;;5052484;28;20199;-53
2023/06/11 07:12:32;;;;;;;2.40;2.00;;;14.90;57.80;;;;;;5051689;28;20670;-54
2023/06/11 07:15:02;;;;;;;2.20;2.00;;;14.90;57.80;;;;;;5051979;28;20195;-52
2023/06/11 07:17:35;;;;;;;2.85;1.95;;;14.90;57.80;;;;;;5050536;28;20652;-53
2023/06/11 07:20:07;;;;;;;2.00;1.80;;;14.90;57.80;;;;;;5051719;28;20652;-50
2023/06/11 07:22:37;;;;;;;1.80;1.70;;;14.90;57.80;;;;;;5051370;28;20199;-51
2023/06/11 07:25:08;;;;;;;2.22;1.98;;;14.90;57.90;;;;;;5053814;28;20237;-54
2023/06/11 07:27:39;;;;;;;2.67;2.30;;;14.90;57.90;;;;;;5052043;28;20722;-49
2023/06/11 07:30:11;;;;;;;2.53;2.00;;;14.90;57.90;;;;;;5051782;28;20199;-51
2023/06/11 07:32:43;;;;;;;2.03;1.88;;;14.90;57.90;;;;;;5055852;28;20194;-52
2023/06/11 07:35:14;;;;;;;2.40;2.00;;;14.90;57.90;;;;;;5071515;28;20199;-50
2023/06/11 07:37:45;;;;;;;2.25;2.05;;;14.90;57.90;;;;;;5071258;28;20198;-52
2023/06/11 07:40:16;;;;;;;2.20;2.00;;;14.90;57.90;;;;;;5071102;28;20226;-55
2023/06/11 07:42:47;;;;;;;2.10;1.90;;;14.90;57.80;;;;;;5071384;28;20629;-51
2023/06/11 07:45:18;;;;;;;2.38;2.17;;;14.90;57.90;;;;;;5071163;28;20579;-51
2023/06/11 07:47:51;;;;;;;2.15;1.90;;;14.90;57.80;;;;;;5070675;28;20233;-53
2023/06/11 07:50:21;;;;;;;2.53;2.00;;;14.90;57.90;;;;;;5071434;28;20203;-49
2023/06/11 07:52:52;;;;;;;2.28;1.90;;;14.90;57.90;;;;;;5071308;28;20194;-50
2023/06/11 07:55:24;;;;;;;2.40;2.05;;;14.90;57.90;;;;;;5071015;28;20202;-53
2023/06/11 07:57:55;;;;;;;2.53;2.10;;;14.90;57.90;;;;;;5058492;28;20203;-51
2023/06/11 08:00:26;;;;;;;2.08;1.88;;;14.90;57.90;;;;;;5051489;28;20206;-51
2023/06/11 08:02:58;;;;;;;3.28;2.28;;;14.90;57.90;;;;;;5050848;28;20203;-54
2023/06/11 08:05:29;;;;;;;2.42;2.00;;;14.90;57.90;;;;;;5051127;28;20226;-53
2023/06/11 08:08:00;;;;;;;2.30;2.00;;;14.90;57.90;;;;;;5050992;28;20223;-52
2023/06/11 08:10:31;;;;;;;2.40;2.20;;;14.90;57.90;;;;;;5050792;28;20633;-54
2023/06/11 08:13:02;;;;;;;2.35;1.92;;;14.90;57.90;;;;;;5051411;28;20655;-53
2023/06/11 08:15:33;;;;;;;2.97;2.38;;;14.90;57.90;;;;;;5050944;28;20216;-51
2023/06/11 08:18:06;;;;;;;3.30;2.50;;;14.80;57.90;;;;;;5051075;28;20291;-51
2023/06/11 08:20:36;;;;;;;4.03;2.38;;;14.90;57.90;;;;;;5069835;28;20565;-50
2023/06/11 08:23:07;;;;;;;2.47;2.28;;;14.90;57.90;;;;;;5071187;28;20205;-54
2023/06/11 08:25:38;;;;;;;3.28;2.30;;;14.90;58.00;;;;;;5069301;28;20211;-53
2023/06/11 08:28:09;;;;;;;2.88;2.42;;;14.90;57.90;;;;;;5060281;28;20314;-51
2023/06/11 08:30:39;;;;;;;3.08;2.50;;;14.90;57.90;;;;;;5057646;28;20768;-51
2023/06/11 08:33:12;;;;;;;3.53;2.72;;;14.90;57.90;;;;;;5056782;28;20563;-49
2023/06/11 08:35:43;;;;;;;2.47;2.10;;;14.80;57.90;;;;;;5057267;28;20215;-50
2023/06/11 08:38:13;;;;;;;2.83;2.13;;;14.90;58.00;;;;;;5057213;28;20195;-51
2023/06/11 08:40:44;;;;;;;3.30;2.28;;;14.90;58.00;;;;;;5057248;28;20195;-56
2023/06/11 08:43:16;;;;;;;4.45;2.67;;;14.90;58.00;;;;;;5057965;28;20195;-54
2023/06/11 08:45:48;;;;;;;3.08;2.70;;;14.80;58.10;;;;;;5057663;28;20305;-50
2023/06/11 08:48:23;;;;;;;4.43;3.17;;;14.90;58.30;;;;;;5052330;28;20706;-55
2023/06/11 08:50:54;;;;;;;3.35;2.55;;;14.90;58.40;;;;;;5055658;28;20202;-53
2023/06/11 08:53:25;;;;;;;3.47;2.80;;;14.90;58.40;;;;;;5056249;28;20249;-55
2023/06/11 08:55:55;;;;;;;3.60;2.63;;;14.90;58.30;;;;;;5056691;28;20234;-53
2023/06/11 08:58:29;;;;;;;4.47;2.80;;;14.90;58.30;;;;;;5056742;28;20210;-51
2023/06/11 09:00:59;;;;;;;4.72;2.95;;;14.90;58.30;;;;;;5056312;28;20563;-55
2023/06/11 09:03:33;;;;;;;3.80;2.63;;;14.90;58.30;;;;;;5056999;28;20207;-56
2023/06/11 09:06:04;;;;;;;4.95;2.90;;;14.90;58.30;;;;;;5055292;28;20224;-54
2023/06/11 09:08:35;;;;;;;3.13;2.53;;;14.80;58.30;;;;;;5057092;28;20219;-54
2023/06/11 09:11:06;;;;;;;5.35;3.00;;;14.90;58.30;;;;;;5056134;28;20200;-55
2023/06/11 09:13:37;;;;;;;3.75;2.90;;;14.90;58.30;;;;;;5056180;28;20238;-56
2023/06/11 09:16:08;;;;;;;2.60;2.40;;;14.90;58.30;;;;;;5056464;28;20231;-55
2023/06/11 09:18:44;;;;;;;3.33;3.03;;;14.80;58.30;;;;;;5056311;28;20196;-54
2023/06/11 09:21:15;;;;;;;3.83;2.53;;;14.80;58.30;;;;;;5056044;28;20195;-55
2023/06/11 09:23:47;;;;;;;3.53;2.40;;;14.80;58.30;;;;;;5036243;28;20203;-55
2023/06/11 09:26:20;;;;;;;3.15;2.47;;;14.80;58.30;;;;;;5056819;28;20294;-56
2023/06/11 09:28:53;;;;;;;3.38;2.42;;;14.80;58.30;;;;;;5057359;28;20230;-56
2023/06/11 09:31:23;;;;;;;3.60;2.70;;;14.80;58.90;;;;;;5073050;28;20693;-56
2023/06/11 09:33:56;;;;;;;3.22;2.58;;;14.80;58.30;;;;;;5056218;28;20202;-54
2023/06/11 09:36:27;;;;;;;3.85;2.70;;;14.80;58.30;;;;;;5056390;28;20230;-56
2023/06/11 09:38:58;;;;;;;3.63;2.70;;;14.80;58.30;;;;;;5054051;28;20270;-54
2023/06/11 09:41:30;;;;;;;3.45;2.63;;;14.80;58.30;;;;;;5053129;28;20210;-55
2023/06/11 09:44:02;;;;;;;4.85;2.90;;;14.80;58.30;;;;;;5067180;28;20202;-54
2023/06/11 09:46:33;;;;;;;2.95;2.20;;;14.80;58.20;;;;;;5072342;28;20222;-55
2023/06/11 09:49:06;;;;;;;2.95;2.60;;;14.70;58.10;;;;;;5052683;28;20223;-52
2023/06/11 09:51:38;;;;;;;3.35;2.45;;;14.80;58.20;;;;;;5052638;28;20245;-53
2023/06/11 09:54:09;;;;;;;3.55;2.47;;;14.80;58.20;;;;;;5053345;28;20203;-54
2023/06/11 09:56:42;;;;;;;3.92;2.40;;;14.80;58.20;;;;;;5052111;28;20616;-55
2023/06/11 09:59:14;;;;;;;4.60;2.78;;;14.70;58.20;;;;;;5052745;28;20235;-54
2023/06/11 10:01:49;;;;;;;2.70;2.25;;;14.70;58.20;;;;;;5052043;28;20199;-53
2023/06/11 10:04:22;;;;;;;3.05;2.22;;;14.70;58.10;;;;;;5052929;28;20210;-54
2023/06/11 10:06:53;;;;;;;2.90;2.60;;;14.80;58.20;;;;;;5052885;28;20349;-54
2023/06/11 10:09:25;;;;;;;4.10;2.90;;;14.70;58.10;;;;;;5053068;28;20203;-54
2023/06/11 10:11:57;;;;;;;3.90;2.05;;;14.70;58.10;;;;;;5051527;28;20203;-54
2023/06/11 10:14:28;;;;;;;3.67;2.50;;;14.70;58.10;;;;;;5052211;28;20214;-51
2023/06/11 10:17:02;;;;;;;3.17;2.63;;;14.70;58.10;;;;;;5058565;28;20724;-56
2023/06/11 10:19:40;;;;;;;3.03;2.42;;;14.70;58.10;;;;;;5072396;28;20198;-54
2023/06/11 10:22:11;;;;;;;3.00;2.28;;;14.70;58.10;;;;;;5055435;28;20651;-55
2023/06/11 10:24:42;;;;;;;2.83;2.50;;;14.70;58.10;;;;;;5052952;28;20195;-53
2023/06/11 10:27:13;;;;;;;4.15;2.17;;;14.70;58.10;;;;;;5053112;28;20219;-54
2023/06/11 10:29:48;;;;;;;3.40;2.53;;;14.60;58.00;;;;;;5052395;28;20232;-54
2023/06/11 10:32:20;;;;;;;2.95;2.50;;;14.60;58.10;;;;;;5052203;28;20206;-53
2023/06/11 10:34:57;;;;;;;4.03;2.63;;;14.60;58.00;;;;;;5052482;28;20682;-55
2023/06/11 10:37:35;;;;;;;4.13;2.65;;;14.60;58.10;;;;;;5051208;28;20302;-55
2023/06/11 10:40:07;;;;;;;2.95;2.65;;;14.60;58.10;;;;;;5052544;28;20198;-51
2023/06/11 10:42:40;;;;;;;3.58;2.20;;;14.60;58.10;;;;;;5052925;28;20691;-52
2023/06/11 10:45:12;;;;;;;2.55;1.95;;;14.60;58.20;;;;;;5069674;28;20199;-56
2023/06/11 10:47:47;;;;;;;4.15;2.47;;;14.60;58.30;;;;;;5072504;28;20214;-55
2023/06/11 10:50:30;;;;;;;4.35;2.70;;;14.60;58.30;;;;;;5071732;28;20677;-57
2023/06/11 10:53:02;;;;;;;2.95;2.53;;;14.60;58.30;;;;;;5072329;28;20573;-57
2023/06/11 10:55:34;;;;;;;4.15;3.03;;;14.60;58.20;;;;;;5072611;28;20214;-54
2023/06/11 10:58:05;;;;;;;3.80;2.75;;;14.60;58.20;;;;;;5057581;28;20246;-57
2023/06/11 11:00:40;;;;;;;2.83;2.45;;;14.60;58.20;;;;;;5052309;28;20698;-55
2023/06/11 11:03:11;;;;;;;3.80;2.58;;;14.60;58.20;;;;;;5052220;28;20199;-55
2023/06/11 11:05:46;;;;;;;3.70;3.10;;;14.60;58.20;;;;;;5052253;28;20220;-56
2023/06/11 11:08:17;;;;;;;3.60;2.70;;;14.50;58.20;;;;;;5052101;28;20226;-56
2023/06/11 11:10:47;;;;;;;3.13;2.65;;;14.50;58.20;;;;;;5051947;28;20199;-57
2023/06/11 11:13:20;;;;;;;3.33;2.80;;;14.50;58.10;;;;;;5052115;28;20199;-55
2023/06/11 11:15:51;;;;;;;2.90;2.70;;;14.50;58.10;;;;;;5058274;28;20206;-56
2023/06/11 11:18:22;;;;;;;4.00;2.83;;;14.50;58.10;;;;;;5072179;28;20658;-57
2023/06/11 11:20:55;;;;;;;3.22;2.80;;;14.50;58.10;;;;;;5072057;28;20198;-57
2023/06/11 11:23:26;;;;;;;3.38;2.67;;;14.50;58.10;;;;;;5068946;28;20187;-56
2023/06/11 11:25:57;;;;;;;3.45;3.00;;;14.50;58.10;;;;;;5051660;28;20215;-56
2023/06/11 11:28:28;;;;;;;3.90;3.13;;;14.50;58.10;;;;;;5051758;28;20227;-55
2023/06/11 11:30:58;;;;;;;3.85;2.90;;;14.50;58.10;;;;;;5051707;28;20239;-56
2023/06/11 11:33:30;;;;;;;2.88;2.53;;;14.40;58.10;;;;;;5056874;28;20195;-57
2023/06/11 11:36:06;;;;;;;3.72;2.85;;;14.40;58.00;;;;;;5071596;28;20615;-57
2023/06/11 11:38:40;;;;;;;3.33;2.75;;;14.40;58.10;;;;;;5071329;28;20234;-56
2023/06/11 11:41:11;;;;;;;3.33;2.80;;;14.40;58.10;;;;;;5071255;28;20669;-56
2023/06/11 11:43:43;;;;;;;3.97;2.85;;;14.40;58.00;;;;;;5071595;28;20650;-53
2023/06/11 11:46:23;;;;;;;3.33;2.92;;;14.40;58.00;;;;;;5071375;28;20215;-56
2023/06/11 11:48:57;;;;;;;3.35;2.70;;;14.40;58.00;;;;;;5071434;28;20258;-55
2023/06/11 11:51:30;;;;;;;3.00;2.65;;;14.30;57.90;;;;;;5071570;28;20217;-56
2023/06/11 11:54:01;;;;;;;3.83;2.70;;;14.30;58.00;;;;;;5071451;28;20201;-55
2023/06/11 11:56:36;;;;;;;2.85;2.55;;;14.30;58.00;;;;;;5069556;28;20225;-55
2023/06/11 11:59:06;;;;;;;3.90;2.50;;;14.30;58.00;;;;;;5051389;28;20199;-56
2023/06/11 12:01:39;;;;;;;2.67;2.40;;;14.30;58.00;;;;;;5051072;28;20580;-57
2023/06/11 12:04:10;;;;;;;3.13;2.60;;;14.30;58.10;;;;;;5051328;28;20192;-55
2023/06/11 12:06:42;;;;;;;3.50;2.90;;;14.20;58.00;;;;;;5051439;28;20622;-56
2023/06/11 12:09:13;;;;;;;3.65;2.55;;;14.20;58.00;;;;;;5051262;28;20690;-56
2023/06/11 12:11:43;;;;;;;3.85;2.75;;;14.20;58.00;;;;;;5051054;28;20196;-56
2023/06/11 12:14:14;;;;;;;3.42;2.75;;;14.20;57.90;;;;;;5051166;28;20253;-57
2023/06/11 12:16:49;;;;;;;4.90;2.83;;;14.20;58.00;;;;;;5051177;28;20219;-56
2023/06/11 12:19:20;;;;;;;4.47;3.38;;;14.20;58.00;;;;;;5066525;28;20194;-56
2023/06/11 12:21:55;;;;;;;3.55;2.97;;;14.20;57.90;;;;;;5071053;28;20635;-57
2023/06/11 12:24:26;;;;;;;3.67;2.70;;;14.20;57.90;;;;;;5070730;28;20279;-56
2023/06/11 12:26:57;;;;;;;3.90;2.85;;;14.10;57.90;;;;;;5063613;28;20218;-56
2023/06/11 12:29:27;;;;;;;3.55;2.90;;;14.10;57.90;;;;;;5050438;28;20245;-56
2023/06/11 12:31:58;;;;;;;4.15;2.83;;;14.10;57.90;;;;;;5050349;28;20203;-57
2023/06/11 12:34:29;;;;;;;4.10;3.08;;;14.10;57.90;;;;;;5051285;28;20245;-55
2023/06/11 12:37:02;;;;;;;4.07;3.13;;;14.10;58.00;;;;;;5051188;28;20215;-56
2023/06/11 12:39:32;;;;;;;3.60;2.83;;;14.00;57.90;;;;;;5051271;28;20202;-55
2023/06/11 12:42:03;;;;;;;4.45;3.17;;;14.10;58.00;;;;;;5050274;28;20191;-55
2023/06/11 12:44:33;;;;;;;3.90;3.05;;;14.00;57.90;;;;;;5050758;28;20237;-56
2023/06/11 12:47:04;;;;;;;4.10;2.80;;;14.00;57.90;;;;;;5050625;28;20226;-57
2023/06/11 12:49:35;;;;;;;4.85;3.17;;;14.00;58.50;;;;;;5066108;28;20214;-56
2023/06/11 12:52:08;;;;;;;3.50;2.85;;;14.00;57.90;;;;;;5070825;28;20195;-56
2023/06/11 12:54:38;;;;;;;4.60;3.10;;;14.00;57.90;;;;;;5070815;28;20199;-56
2023/06/11 12:57:11;;;;;;;3.58;2.65;;;13.90;57.80;;;;;;5063804;28;20227;-57
2023/06/11 12:59:42;;;;;;;3.53;2.90;;;14.00;57.80;;;;;;5050670;28;20210;-57
2023/06/11 13:02:13;;;;;;;5.30;3.20;;;13.90;57.80;;;;;;5051268;28;20196;-57
2023/06/11 13:04:44;;;;;;;4.15;2.97;;;13.90;57.80;;;;;;5051333;28;20196;-57